Time;durP1;ratioP1;P1;durP2;ratioP2;P2;SDS_P1;SDS_P2;PMS_P1;PMS_P2;Temp;Humidity;BMP_temperature;BMP_pressure;BME280_temperature;BME280_humidity;BME280_pressure;Samples;Min_cycle;Max_cycle;Signal;HPM_P1;HPM_P2
2022/07/05 00:02:19;;;;;;;3.90;3.17;;;15.40;99.90;;;;;;5059370;28;20070;-84
2022/07/05 00:04:45;;;;;;;4.25;3.20;;;15.40;99.90;;;;;;5092588;28;20032;-84
2022/07/05 00:07:20;;;;;;;4.45;2.92;;;15.40;99.90;;;;;;5059274;28;20036;-84
2022/07/05 00:09:56;;;;;;;3.78;3.28;;;15.40;99.90;;;;;;5061884;28;20400;-83
2022/07/05 00:12:31;;;;;;;3.92;3.10;;;15.40;99.90;;;;;;5059359;28;20040;-84
2022/07/05 00:14:58;;;;;;;5.35;3.72;;;15.30;99.90;;;;;;5092595;28;20495;-84
2022/07/05 00:17:24;;;;;;;3.63;3.00;;;15.30;99.90;;;;;;5075355;28;20476;-84
2022/07/05 00:19:49;;;;;;;5.50;3.30;;;15.20;99.90;;;;;;5075695;28;20127;-84
2022/07/05 00:22:15;;;;;;;4.78;3.53;;;15.20;99.90;;;;;;5075179;28;20487;-84
2022/07/05 00:24:41;;;;;;;7.90;3.53;;;15.20;99.90;;;;;;5091910;28;20032;-83
2022/07/05 00:27:07;;;;;;;5.88;3.70;;;15.10;99.90;;;;;;5093520;28;20090;-83
2022/07/05 00:29:32;;;;;;;5.57;4.30;;;15.10;99.90;;;;;;5042556;28;20123;-83
2022/07/05 00:31:58;;;;;;;6.30;3.58;;;15.00;99.90;;;;;;5077019;28;20050;-84
2022/07/05 00:34:24;;;;;;;4.68;3.47;;;15.00;99.90;;;;;;5059245;28;20099;-83
2022/07/05 00:36:50;;;;;;;7.55;3.92;;;14.90;99.90;;;;;;5058061;28;20052;-84
2022/07/05 00:39:16;;;;;;;5.35;4.22;;;14.90;99.90;;;;;;5041776;28;20040;-84
2022/07/05 00:41:41;;;;;;;4.40;3.97;;;14.90;99.90;;;;;;5059584;28;20123;-83
2022/07/05 00:44:09;;;;;;;6.22;4.20;;;14.80;99.90;;;;;;5075210;28;20047;-84
2022/07/05 00:46:36;;;;;;;6.85;4.53;;;14.80;99.90;;;;;;5058134;28;20047;-84
2022/07/05 00:49:04;;;;;;;5.90;4.28;;;14.80;99.90;;;;;;5058411;28;20504;-84
2022/07/05 00:51:32;;;;;;;5.72;4.50;;;14.70;99.90;;;;;;5078694;28;20051;-84
2022/07/05 00:53:59;;;;;;;5.60;4.03;;;14.70;99.90;;;;;;5078808;28;20395;-84
2022/07/05 00:56:26;;;;;;;6.28;4.15;;;14.50;99.90;;;;;;5078377;28;20480;-84
2022/07/05 00:58:52;;;;;;;5.85;3.67;;;14.60;99.90;;;;;;5078521;28;20365;-84
2022/07/05 01:01:18;;;;;;;4.57;3.90;;;14.50;99.90;;;;;;5078562;28;20032;-84
2022/07/05 01:03:45;;;;;;;6.20;3.95;;;14.40;99.90;;;;;;5078489;28;20086;-84
2022/07/05 01:06:12;;;;;;;5.82;4.25;;;14.40;99.90;;;;;;5078391;28;20040;-84
2022/07/05 01:08:40;;;;;;;4.78;4.13;;;14.30;99.90;;;;;;5095119;28;20506;-84
2022/07/05 01:11:07;;;;;;;4.35;3.95;;;14.30;99.90;;;;;;5095061;28;20061;-84
2022/07/05 01:13:35;;;;;;;4.63;3.88;;;14.20;99.90;;;;;;5095405;28;20101;-84
2022/07/05 01:16:01;;;;;;;4.30;3.70;;;14.20;99.90;;;;;;5078541;28;20110;-84
2022/07/05 01:18:28;;;;;;;4.97;4.18;;;14.20;99.90;;;;;;5078265;28;20408;-84
2022/07/05 01:20:54;;;;;;;4.93;3.75;;;14.20;99.90;;;;;;5095336;28;20044;-84
2022/07/05 01:23:20;;;;;;;7.03;4.80;;;14.20;99.90;;;;;;5095761;28;20036;-84
2022/07/05 01:25:49;;;;;;;5.65;4.32;;;14.20;99.90;;;;;;5094785;28;20040;-84
2022/07/05 01:28:15;;;;;;;6.10;4.80;;;14.20;99.90;;;;;;5061214;28;20075;-84
2022/07/05 01:30:42;;;;;;;5.55;4.60;;;14.20;99.90;;;;;;5078020;28;20488;-84
2022/07/05 01:33:09;;;;;;;6.65;4.93;;;14.20;99.90;;;;;;5094869;28;20040;-84
2022/07/05 01:35:36;;;;;;;5.80;4.72;;;14.20;99.90;;;;;;5095130;28;20396;-84
2022/07/05 01:38:03;;;;;;;7.75;4.47;;;14.20;99.90;;;;;;5077880;28;20094;-84
2022/07/05 01:40:29;;;;;;;6.22;4.57;;;14.10;99.90;;;;;;5077217;28;20119;-84
2022/07/05 01:42:54;;;;;;;5.47;4.70;;;14.10;99.90;;;;;;5094114;28;20136;-84
2022/07/05 01:45:39;;;;;;;5.72;4.80;;;14.10;99.90;;;;;;5078538;28;20380;-84
2022/07/05 01:48:07;;;;;;;6.95;4.85;;;14.10;99.90;;;;;;5064834;28;20128;-84
2022/07/05 01:50:41;;;;;;;5.70;4.63;;;14.00;99.90;;;;;;5078714;28;20131;-84
2022/07/05 01:53:14;;;;;;;7.55;4.65;;;14.00;99.90;;;;;;5078622;28;20092;-84
2022/07/05 01:55:39;;;;;;;6.85;4.60;;;14.00;99.90;;;;;;5077719;28;20039;-83
2022/07/05 01:58:06;;;;;;;7.97;5.13;;;14.00;99.90;;;;;;5077490;28;20059;-84
2022/07/05 02:00:45;;;;;;;7.03;5.03;;;13.90;99.90;;;;;;5061237;28;20047;-84
2022/07/05 02:03:12;;;;;;;5.82;5.22;;;13.90;99.90;;;;;;5094164;28;20119;-84
2022/07/05 02:05:37;;;;;;;6.38;5.20;;;13.90;99.90;;;;;;5077513;28;20044;-84
2022/07/05 02:08:03;;;;;;;6.50;5.10;;;13.90;99.90;;;;;;5077002;28;20043;-84
2022/07/05 02:10:29;;;;;;;7.20;5.60;;;13.90;99.90;;;;;;5077170;28;20040;-84
2022/07/05 02:12:55;;;;;;;5.97;5.38;;;13.90;99.90;;;;;;5076726;28;20036;-84
2022/07/05 02:15:20;;;;;;;6.10;5.43;;;13.90;99.90;;;;;;5077256;28;20042;-84
2022/07/05 02:17:46;;;;;;;6.65;5.32;;;13.80;99.90;;;;;;5076845;28;20043;-84
2022/07/05 02:20:12;;;;;;;5.72;5.13;;;13.80;99.90;;;;;;5093629;28;20514;-84
2022/07/05 02:22:37;;;;;;;6.25;5.00;;;13.70;99.90;;;;;;5094370;28;20105;-84
2022/07/05 02:25:04;;;;;;;5.82;5.00;;;13.60;99.90;;;;;;5078241;28;20094;-84
2022/07/05 02:27:29;;;;;;;6.03;4.72;;;13.60;99.90;;;;;;5095212;28;20044;-84
2022/07/05 02:29:55;;;;;;;6.15;4.90;;;13.60;99.90;;;;;;5060892;28;20049;-84
2022/07/05 02:32:21;;;;;;;5.93;4.72;;;13.60;99.90;;;;;;5044052;28;20074;-84
2022/07/05 02:34:46;;;;;;;6.20;5.15;;;13.50;99.90;;;;;;5076663;28;20483;-84
2022/07/05 02:37:12;;;;;;;6.82;5.85;;;13.50;99.90;;;;;;5076370;28;20055;-84
2022/07/05 02:39:38;;;;;;;6.18;4.85;;;13.50;99.90;;;;;;5093132;28;20044;-84
2022/07/05 02:42:03;;;;;;;7.20;5.35;;;13.50;99.90;;;;;;5076263;28;20123;-84
2022/07/05 02:44:29;;;;;;;5.75;4.93;;;13.60;99.90;;;;;;5076631;28;20028;-84
2022/07/05 02:46:55;;;;;;;7.55;5.88;;;13.50;99.90;;;;;;5093066;28;20044;-84
2022/07/05 02:49:20;;;;;;;7.00;5.80;;;13.60;99.90;;;;;;5060383;28;20131;-85
2022/07/05 02:51:46;;;;;;;6.05;5.32;;;13.50;99.90;;;;;;5060900;28;20446;-85
2022/07/05 02:54:12;;;;;;;7.22;5.68;;;13.50;99.90;;;;;;5077208;28;20058;-84
2022/07/05 02:56:37;;;;;;;7.07;5.53;;;13.40;99.90;;;;;;5076102;28;20036;-84
2022/07/05 02:59:05;;;;;;;7.88;5.75;;;13.40;99.90;;;;;;5059454;28;20579;-84
2022/07/05 03:01:31;;;;;;;7.20;5.53;;;13.40;99.90;;;;;;5059676;28;20122;-84
2022/07/05 03:03:58;;;;;;;6.28;5.65;;;13.40;99.90;;;;;;5093347;28;20083;-84
2022/07/05 03:06:24;;;;;;;6.68;5.38;;;13.40;99.90;;;;;;5093756;28;20036;-84
2022/07/05 03:08:50;;;;;;;7.85;5.90;;;13.40;99.90;;;;;;5060167;28;20127;-84
2022/07/05 03:11:15;;;;;;;7.35;6.47;;;13.40;99.90;;;;;;5076059;28;20036;-84
2022/07/05 03:13:42;;;;;;;7.88;5.93;;;13.40;99.90;;;;;;5058806;28;20032;-84
2022/07/05 03:16:07;;;;;;;5.88;5.28;;;13.40;99.90;;;;;;5076033;28;20036;-84
2022/07/05 03:18:33;;;;;;;6.18;5.32;;;13.40;99.90;;;;;;5076389;28;20040;-84
2022/07/05 03:20:59;;;;;;;5.30;4.80;;;13.40;99.90;;;;;;5060110;28;20035;-85
2022/07/05 03:23:24;;;;;;;7.95;6.25;;;13.40;99.90;;;;;;5059765;28;20054;-84
2022/07/05 03:25:50;;;;;;;6.47;5.53;;;13.40;99.90;;;;;;5060595;28;20128;-85
2022/07/05 03:28:16;;;;;;;7.82;5.97;;;13.40;99.90;;;;;;5077864;28;20173;-85
2022/07/05 03:30:41;;;;;;;7.53;6.43;;;13.40;99.90;;;;;;5078210;28;20058;-84
2022/07/05 03:33:07;;;;;;;6.85;5.50;;;13.30;99.90;;;;;;5060824;28;20492;-84
2022/07/05 03:35:33;;;;;;;8.95;6.35;;;13.40;99.90;;;;;;5078084;28;20450;-85
2022/07/05 03:37:58;;;;;;;8.35;6.50;;;13.30;99.90;;;;;;5060911;28;20079;-85
2022/07/05 03:40:24;;;;;;;9.10;6.40;;;13.30;99.90;;;;;;5076925;28;20043;-84
2022/07/05 03:42:50;;;;;;;6.55;5.72;;;13.30;99.90;;;;;;5061099;28;20036;-85
2022/07/05 03:45:15;;;;;;;6.75;5.70;;;13.40;99.90;;;;;;5077695;28;20173;-85
2022/07/05 03:47:41;;;;;;;8.68;5.75;;;13.40;99.90;;;;;;5094243;28;20044;-85
2022/07/05 03:50:07;;;;;;;7.03;6.32;;;13.40;99.90;;;;;;5060322;28;20040;-85
2022/07/05 03:52:33;;;;;;;8.25;5.88;;;13.50;99.90;;;;;;5093660;28;20046;-85
2022/07/05 03:54:59;;;;;;;6.50;5.53;;;13.50;99.90;;;;;;5093802;28;20127;-85
2022/07/05 03:57:24;;;;;;;6.97;5.70;;;13.60;99.90;;;;;;5093349;28;20052;-85
2022/07/05 03:59:50;;;;;;;7.18;5.43;;;13.60;99.90;;;;;;5076757;28;20036;-84
2022/07/05 04:02:16;;;;;;;7.20;5.93;;;13.60;99.90;;;;;;5076405;28;20032;-84
2022/07/05 04:04:42;;;;;;;8.85;5.93;;;13.60;99.90;;;;;;5093074;28;20040;-84
2022/07/05 04:07:07;;;;;;;6.95;5.93;;;13.70;99.90;;;;;;5059349;28;20040;-85
2022/07/05 04:09:33;;;;;;;9.52;6.43;;;13.70;99.90;;;;;;5076082;28;20040;-85
2022/07/05 04:11:59;;;;;;;8.57;6.15;;;13.70;99.90;;;;;;5092564;28;20419;-85
2022/07/05 04:14:24;;;;;;;7.63;5.97;;;13.80;99.90;;;;;;5058050;28;20078;-84
2022/07/05 04:16:50;;;;;;;7.75;6.22;;;13.80;99.90;;;;;;5076083;28;20044;-84
2022/07/05 04:19:16;;;;;;;12.70;6.43;;;13.90;99.90;;;;;;5060220;28;20043;-84
2022/07/05 04:21:42;;;;;;;6.72;6.03;;;13.90;99.90;;;;;;5059217;28;20062;-85
2022/07/05 04:24:08;;;;;;;7.88;6.13;;;13.80;99.90;;;;;;5059284;28;20181;-85
2022/07/05 04:26:33;;;;;;;8.10;6.47;;;13.90;99.90;;;;;;5097103;28;20070;-84
2022/07/05 04:28:59;;;;;;;7.55;6.07;;;13.90;99.90;;;;;;5047478;28;20476;-84
2022/07/05 04:31:25;;;;;;;8.40;6.53;;;14.00;99.90;;;;;;5064384;28;20036;-85
2022/07/05 04:33:50;;;;;;;7.22;6.53;;;14.00;99.90;;;;;;5065367;28;20044;-85
2022/07/05 04:36:16;;;;;;;8.90;6.28;;;14.10;99.90;;;;;;5086980;28;20062;-85
2022/07/05 04:38:42;;;;;;;7.85;6.55;;;14.10;99.90;;;;;;5089119;28;20043;-85
2022/07/05 04:41:08;;;;;;;7.03;6.32;;;14.10;99.90;;;;;;5106634;28;20027;-84
2022/07/05 04:43:34;;;;;;;7.25;6.13;;;14.20;99.90;;;;;;5106553;28;20055;-84
2022/07/05 04:46:00;;;;;;;8.98;6.22;;;14.20;99.90;;;;;;5086867;28;20039;-85
2022/07/05 04:48:26;;;;;;;8.13;6.95;;;14.20;99.90;;;;;;5067630;28;20372;-85
2022/07/05 04:50:51;;;;;;;7.63;6.03;;;14.30;99.90;;;;;;5100901;28;20035;-84
2022/07/05 04:53:17;;;;;;;7.93;7.00;;;14.40;99.90;;;;;;5083193;28;20514;-84
2022/07/05 04:55:43;;;;;;;7.65;6.35;;;14.40;99.90;;;;;;5083140;28;20112;-84
2022/07/05 04:58:08;;;;;;;9.15;6.40;;;14.50;99.90;;;;;;5050514;28;20043;-84
2022/07/05 05:00:34;;;;;;;7.47;6.78;;;14.50;99.90;;;;;;5083221;28;20035;-84
2022/07/05 05:03:00;;;;;;;7.20;6.43;;;14.60;99.90;;;;;;5066678;28;20047;-84
2022/07/05 05:05:26;;;;;;;10.70;6.60;;;14.60;99.90;;;;;;5083888;28;20173;-84
2022/07/05 05:07:51;;;;;;;8.30;6.40;;;14.70;99.90;;;;;;5100443;28;20400;-84
2022/07/05 05:10:17;;;;;;;7.35;6.45;;;14.70;99.90;;;;;;5083411;28;20043;-84
2022/07/05 05:12:43;;;;;;;8.30;7.00;;;14.70;99.90;;;;;;5066270;28;20043;-84
2022/07/05 05:15:09;;;;;;;8.43;6.07;;;14.80;99.90;;;;;;5067033;28;20093;-84
2022/07/05 05:17:37;;;;;;;8.15;6.53;;;14.80;99.90;;;;;;5066199;28;20044;-84
2022/07/05 05:20:05;;;;;;;9.63;6.63;;;14.80;99.90;;;;;;5100659;28;20035;-84
2022/07/05 05:22:31;;;;;;;9.10;6.45;;;14.90;99.90;;;;;;5083079;28;20032;-84
2022/07/05 05:24:57;;;;;;;8.02;6.53;;;14.90;99.90;;;;;;5083270;28;20041;-84
2022/07/05 05:27:22;;;;;;;9.00;6.47;;;14.90;99.90;;;;;;5065608;28;20105;-85
2022/07/05 05:29:48;;;;;;;7.28;6.50;;;15.00;99.90;;;;;;5082048;28;20047;-84
2022/07/05 05:32:14;;;;;;;9.43;6.47;;;15.10;99.90;;;;;;5099558;28;20082;-84
2022/07/05 05:34:40;;;;;;;11.35;6.95;;;15.10;99.90;;;;;;5065022;28;20043;-85
2022/07/05 05:37:05;;;;;;;10.68;6.72;;;15.10;99.90;;;;;;5080124;28;20452;-84
2022/07/05 05:39:31;;;;;;;7.72;6.30;;;15.20;99.90;;;;;;5082609;28;20057;-84
2022/07/05 05:41:57;;;;;;;7.60;6.57;;;15.20;99.90;;;;;;5065812;28;20047;-84
2022/07/05 05:44:22;;;;;;;8.32;6.28;;;15.30;99.90;;;;;;5065585;28;20036;-84
2022/07/05 05:46:48;;;;;;;6.80;5.88;;;15.40;99.90;;;;;;5098212;28;20555;-84
2022/07/05 05:49:14;;;;;;;9.88;6.88;;;15.50;99.90;;;;;;5081710;28;20120;-84
2022/07/05 05:51:39;;;;;;;10.23;6.43;;;15.50;99.90;;;;;;5064624;28;20039;-84
2022/07/05 05:54:05;;;;;;;8.75;6.18;;;15.60;99.90;;;;;;5081310;28;20050;-85
2022/07/05 05:56:31;;;;;;;7.60;6.35;;;15.60;99.90;;;;;;5081491;28;20054;-84
2022/07/05 05:58:56;;;;;;;8.02;6.18;;;15.70;99.90;;;;;;5097507;28;20122;-84
2022/07/05 06:01:22;;;;;;;7.93;6.43;;;15.80;99.90;;;;;;5064425;28;20119;-85
2022/07/05 06:03:48;;;;;;;7.00;5.65;;;15.90;99.90;;;;;;5064379;28;20035;-85
2022/07/05 06:06:13;;;;;;;7.25;6.05;;;16.00;99.90;;;;;;5064857;28;20074;-85
2022/07/05 06:08:39;;;;;;;8.35;6.00;;;16.00;99.90;;;;;;5080933;28;20044;-84
2022/07/05 06:11:05;;;;;;;9.55;6.05;;;16.10;99.90;;;;;;5097368;28;20403;-84
2022/07/05 06:13:31;;;;;;;6.40;5.80;;;16.20;99.90;;;;;;5098178;28;20047;-84
2022/07/05 06:15:56;;;;;;;9.40;5.38;;;16.30;99.90;;;;;;5097698;28;20054;-85
2022/07/05 06:18:22;;;;;;;7.70;4.93;;;16.30;99.90;;;;;;5097219;28;20039;-85
2022/07/05 06:20:48;;;;;;;6.75;4.78;;;16.40;99.90;;;;;;5064360;28;20127;-85
2022/07/05 06:23:13;;;;;;;5.70;4.18;;;16.50;99.90;;;;;;5080833;28;20051;-85
2022/07/05 06:25:40;;;;;;;6.63;4.13;;;16.50;99.90;;;;;;5080533;28;20044;-84
2022/07/05 06:28:07;;;;;;;5.45;4.28;;;16.60;99.90;;;;;;5080361;28;20040;-85
2022/07/05 06:30:37;;;;;;;7.78;3.72;;;16.80;99.90;;;;;;5097351;28;20161;-85
2022/07/05 06:33:03;;;;;;;6.32;3.47;;;16.90;99.90;;;;;;5097144;28;20402;-85
2022/07/05 06:35:30;;;;;;;4.50;3.15;;;17.10;99.90;;;;;;5080425;28;20040;-85
2022/07/05 06:37:59;;;;;;;6.55;2.70;;;17.20;99.90;;;;;;5096630;28;20052;-85
2022/07/05 06:40:26;;;;;;;6.63;2.10;;;17.30;99.90;;;;;;5096659;28;20087;-85
2022/07/05 06:42:54;;;;;;;3.85;1.90;;;17.50;99.90;;;;;;5079610;28;20066;-84
2022/07/05 06:45:20;;;;;;;3.30;1.70;;;17.60;99.90;;;;;;5080348;28;20032;-85
2022/07/05 06:48:01;;;;;;;6.40;1.65;;;17.80;99.90;;;;;;5062985;28;20178;-85
2022/07/05 06:50:29;;;;;;;5.40;1.92;;;18.00;99.90;;;;;;5097235;28;20039;-85
2022/07/05 06:52:55;;;;;;;4.15;1.83;;;18.20;99.90;;;;;;5097256;28;20043;-86
2022/07/05 06:55:21;;;;;;;4.20;1.50;;;18.30;99.90;;;;;;5096768;28;20086;-85
2022/07/05 06:57:47;;;;;;;2.13;1.30;;;18.30;99.90;;;;;;5062786;28;20051;-85
2022/07/05 07:00:14;;;;;;;5.22;1.65;;;18.30;99.90;;;;;;5046174;28;20035;-84
2022/07/05 07:02:40;;;;;;;3.50;1.23;;;18.20;99.90;;;;;;5079445;28;20042;-85
2022/07/05 07:05:06;;;;;;;4.18;1.40;;;18.30;99.90;;;;;;5062843;28;20044;-84
2022/07/05 07:10:17;;;;;;;3.63;1.20;;;18.20;99.90;;;;;;5081840;28;20180;-85
2022/07/05 07:12:42;;;;;;;3.50;1.30;;;18.40;99.90;;;;;;5096513;28;20089;-85
2022/07/05 07:15:08;;;;;;;7.75;1.70;;;18.60;99.90;;;;;;5079573;28;20043;-85
2022/07/05 07:17:34;;;;;;;2.30;1.20;;;18.70;99.90;;;;;;5063031;28;20447;-85
2022/07/05 07:20:00;;;;;;;5.82;1.73;;;18.80;99.90;;;;;;5079929;28;20150;-85
2022/07/05 07:22:26;;;;;;;3.58;1.23;;;18.90;99.90;;;;;;5096068;28;20067;-85
2022/07/05 07:24:52;;;;;;;7.40;1.58;;;19.00;99.90;;;;;;5096057;28;20032;-85
2022/07/05 07:27:18;;;;;;;2.28;1.10;;;19.10;99.90;;;;;;5078995;28;20044;-85
2022/07/05 07:29:44;;;;;;;5.45;1.60;;;19.10;99.90;;;;;;5062766;28;20046;-85
2022/07/05 07:32:10;;;;;;;6.00;1.13;;;19.20;99.90;;;;;;5079566;28;20442;-85
2022/07/05 07:34:37;;;;;;;2.83;1.33;;;19.30;99.90;;;;;;5096197;28;20223;-85
2022/07/05 07:37:04;;;;;;;2.88;1.38;;;19.50;99.90;;;;;;5078982;28;20044;-85
2022/07/05 07:39:31;;;;;;;4.40;1.40;;;19.80;99.90;;;;;;5079068;28;20460;-85
2022/07/05 07:41:57;;;;;;;2.95;1.33;;;20.10;99.90;;;;;;5062350;28;20075;-85
2022/07/05 07:44:23;;;;;;;3.72;1.10;;;20.40;99.90;;;;;;5045938;28;20059;-85
2022/07/05 07:46:50;;;;;;;5.55;1.85;;;20.80;99.90;;;;;;5062691;28;20043;-85
2022/07/05 07:49:16;;;;;;;2.70;1.00;;;21.10;99.90;;;;;;5079140;28;20075;-85
2022/07/05 07:51:42;;;;;;;4.35;1.20;;;21.30;99.90;;;;;;5079566;28;20050;-85
2022/07/05 07:54:07;;;;;;;3.28;1.20;;;21.50;99.90;;;;;;5062469;28;20044;-84
2022/07/05 07:56:33;;;;;;;3.13;1.50;;;21.60;99.90;;;;;;5062435;28;20051;-84
2022/07/05 07:59:00;;;;;;;3.03;1.15;;;21.70;99.10;;;;;;5079272;28;20118;-84
2022/07/05 08:01:26;;;;;;;3.67;1.15;;;21.70;98.80;;;;;;5099854;28;20036;-84
2022/07/05 08:03:51;;;;;;;3.22;1.50;;;21.90;99.00;;;;;;5099993;28;20043;-85
2022/07/05 08:06:17;;;;;;;3.30;1.20;;;21.90;98.60;;;;;;5082779;28;20403;-85
2022/07/05 08:08:44;;;;;;;7.85;1.20;;;21.90;97.60;;;;;;5100176;28;20040;-84
2022/07/05 08:11:12;;;;;;;4.28;1.05;;;22.00;97.70;;;;;;5100283;28;20046;-85
2022/07/05 08:13:39;;;;;;;3.60;0.95;;;22.00;97.40;;;;;;5083706;28;20415;-85
2022/07/05 08:16:05;;;;;;;2.08;1.00;;;22.00;96.90;;;;;;5100624;28;20043;-84
2022/07/05 08:21:35;;;;;;;4.00;0.98;;;22.00;95.80;;;;;;5099754;28;20041;-84
2022/07/05 08:24:05;;;;;;;4.07;1.30;;;21.90;96.20;;;;;;5100122;28;20088;-85
2022/07/05 08:26:31;;;;;;;4.07;1.13;;;22.00;96.50;;;;;;5093514;28;20472;-85
2022/07/05 08:28:59;;;;;;;2.88;1.05;;;22.00;95.50;;;;;;5084194;28;20035;-85
2022/07/05 08:31:26;;;;;;;3.67;1.00;;;21.80;95.20;;;;;;5083463;28;20043;-85
2022/07/05 08:33:51;;;;;;;2.42;0.90;;;21.50;95.10;;;;;;5066493;28;20544;-84
2022/07/05 08:36:17;;;;;;;2.03;1.00;;;21.40;95.40;;;;;;5066845;28;20048;-84
2022/07/05 08:38:43;;;;;;;3.08;1.00;;;21.60;95.00;;;;;;5066610;28;20475;-84
2022/07/05 08:41:11;;;;;;;2.55;0.90;;;21.80;94.50;;;;;;5083222;28;20040;-85
2022/07/05 08:43:41;;;;;;;5.82;1.20;;;22.00;93.90;;;;;;5082987;28;20036;-85
2022/07/05 08:46:12;;;;;;;2.78;1.20;;;22.30;92.80;;;;;;5082822;28;20484;-85
2022/07/05 08:48:44;;;;;;;3.30;0.90;;;22.20;92.30;;;;;;5082575;28;20129;-85
2022/07/05 08:51:14;;;;;;;3.53;1.25;;;22.00;92.50;;;;;;5099108;28;20075;-85
2022/07/05 08:53:41;;;;;;;2.20;1.05;;;22.00;92.10;;;;;;5098745;28;20111;-85
2022/07/05 08:56:11;;;;;;;6.93;1.20;;;22.20;92.30;;;;;;5098705;28;20073;-84
2022/07/05 08:58:39;;;;;;;4.30;1.25;;;22.20;92.10;;;;;;5098316;28;20050;-85
2022/07/05 09:01:06;;;;;;;2.92;1.05;;;22.40;92.00;;;;;;5098924;28;20046;-85
2022/07/05 09:03:37;;;;;;;6.25;1.40;;;22.40;91.70;;;;;;5065680;28;20357;-85
2022/07/05 09:06:07;;;;;;;6.88;1.00;;;22.00;91.30;;;;;;5098595;28;20039;-85
2022/07/05 09:08:39;;;;;;;4.50;1.20;;;21.70;91.50;;;;;;5081538;28;20484;-85
2022/07/05 09:11:12;;;;;;;4.25;1.25;;;21.50;91.90;;;;;;5096977;28;20043;-85
2022/07/05 09:13:40;;;;;;;3.17;1.08;;;21.60;92.80;;;;;;5098588;28;20039;-85
2022/07/05 09:16:06;;;;;;;3.15;1.10;;;21.80;92.60;;;;;;5098652;28;20479;-85
2022/07/05 09:18:45;;;;;;;5.03;1.10;;;21.90;92.00;;;;;;5098138;28;20055;-85
2022/07/05 09:21:15;;;;;;;5.53;1.40;;;21.90;91.50;;;;;;5098205;28;20492;-85
2022/07/05 09:23:42;;;;;;;3.78;1.05;;;21.70;91.20;;;;;;5099010;28;20036;-85
2022/07/05 09:26:08;;;;;;;5.85;1.13;;;21.60;91.40;;;;;;5098781;28;20047;-85
2022/07/05 09:28:33;;;;;;;4.30;1.48;;;21.60;91.70;;;;;;5081399;28;20036;-85
2022/07/05 09:30:59;;;;;;;2.00;1.00;;;21.80;91.80;;;;;;5099441;28;20044;-85
2022/07/05 09:33:25;;;;;;;5.10;1.00;;;22.00;91.50;;;;;;5099365;28;20057;-85
2022/07/05 09:35:54;;;;;;;4.13;1.15;;;22.20;91.30;;;;;;5048844;28;20042;-85
2022/07/05 09:38:22;;;;;;;4.90;1.10;;;22.20;90.90;;;;;;5083331;28;20043;-85
2022/07/05 09:40:53;;;;;;;3.95;1.15;;;22.40;91.20;;;;;;5083274;28;20043;-85
2022/07/05 09:43:23;;;;;;;3.28;1.00;;;22.40;90.50;;;;;;5099971;28;20032;-85
2022/07/05 09:45:53;;;;;;;2.63;1.10;;;22.40;90.40;;;;;;5067040;28;20047;-85
2022/07/05 09:48:19;;;;;;;4.85;1.27;;;22.40;90.20;;;;;;5066014;28;20392;-85
2022/07/05 09:50:45;;;;;;;7.22;1.20;;;22.30;90.10;;;;;;5099549;28;20047;-84
2022/07/05 09:53:11;;;;;;;4.68;1.50;;;22.00;90.00;;;;;;5081847;28;20048;-84
2022/07/05 09:55:38;;;;;;;5.47;1.10;;;21.90;90.50;;;;;;5099077;28;20407;-85
2022/07/05 09:58:04;;;;;;;6.03;1.48;;;21.70;90.50;;;;;;5097650;28;20032;-84
2022/07/05 10:00:30;;;;;;;3.13;1.02;;;21.50;90.50;;;;;;5097661;28;20070;-84
2022/07/05 10:03:03;;;;;;;4.68;1.15;;;21.50;90.60;;;;;;5098586;28;20036;-85
2022/07/05 10:05:31;;;;;;;4.30;1.30;;;21.50;90.60;;;;;;5081890;28;20067;-85
2022/07/05 10:08:01;;;;;;;4.40;1.20;;;21.50;91.00;;;;;;5098172;28;20047;-85
2022/07/05 10:10:32;;;;;;;4.32;1.45;;;21.60;90.90;;;;;;5098585;28;20047;-85
2022/07/05 10:13:07;;;;;;;8.57;1.35;;;21.70;90.70;;;;;;5099117;28;20047;-85
2022/07/05 10:15:35;;;;;;;16.02;1.60;;;21.90;90.90;;;;;;5083707;28;20050;-85
2022/07/05 10:18:08;;;;;;;4.88;1.10;;;22.00;91.20;;;;;;5100487;28;20122;-85
2022/07/05 10:20:37;;;;;;;3.65;1.27;;;22.10;90.90;;;;;;5084753;28;20036;-85
2022/07/05 10:23:10;;;;;;;5.95;1.10;;;22.00;90.30;;;;;;5115022;28;20024;-86
2022/07/05 10:25:37;;;;;;;6.78;1.33;;;21.90;90.40;;;;;;5104054;28;20023;-84
2022/07/05 10:28:04;;;;;;;5.20;1.15;;;21.70;90.60;;;;;;5086059;28;20107;-84
2022/07/05 10:30:30;;;;;;;4.90;1.58;;;21.60;91.00;;;;;;5103184;28;20036;-84
2022/07/05 10:32:56;;;;;;;4.00;1.10;;;21.70;91.60;;;;;;5081610;28;20395;-85
2022/07/05 10:35:22;;;;;;;3.60;1.20;;;21.60;91.70;;;;;;5098232;28;20054;-85
2022/07/05 10:37:49;;;;;;;2.47;1.02;;;21.50;91.60;;;;;;5081308;28;20048;-85
2022/07/05 10:40:15;;;;;;;9.85;1.10;;;21.50;92.00;;;;;;5082005;28;20039;-85
2022/07/05 10:42:52;;;;;;;3.55;1.02;;;21.50;91.80;;;;;;5097712;28;20036;-84
2022/07/05 10:45:29;;;;;;;10.20;1.67;;;21.50;91.60;;;;;;5097933;28;20043;-84
2022/07/05 10:48:17;;;;;;;8.70;1.30;;;21.40;91.50;;;;;;5097975;28;20040;-85
2022/07/05 10:50:48;;;;;;;3.42;1.30;;;21.30;91.80;;;;;;5081879;28;20054;-85
2022/07/05 10:53:15;;;;;;;4.28;1.27;;;21.20;92.30;;;;;;5097626;28;20051;-84
2022/07/05 10:55:53;;;;;;;5.90;1.20;;;21.10;92.90;;;;;;5080592;28;20071;-85
2022/07/05 10:58:24;;;;;;;6.43;1.58;;;21.10;93.80;;;;;;5096244;28;20051;-85
2022/07/05 11:01:17;;;;;;;16.33;2.10;;;21.20;94.00;;;;;;5080414;28;20032;-85
2022/07/05 11:04:26;;;;;;;6.65;1.30;;;21.20;93.60;;;;;;5096786;28;20076;-85
2022/07/05 11:06:52;;;;;;;16.02;1.80;;;20.90;92.80;;;;;;5096603;28;20491;-85
2022/07/05 11:09:19;;;;;;;5.82;1.30;;;20.70;93.00;;;;;;5046486;28;20046;-85
2022/07/05 11:11:52;;;;;;;10.98;1.75;;;20.60;93.30;;;;;;5080255;28;20047;-85
2022/07/05 11:14:21;;;;;;;3.45;1.45;;;20.60;93.80;;;;;;5081060;28;20065;-85
2022/07/05 11:17:09;;;;;;;4.55;1.15;;;20.70;94.40;;;;;;5080510;28;20047;-85
2022/07/05 11:20:04;;;;;;;3.33;1.38;;;20.80;93.10;;;;;;5097079;28;20173;-85
2022/07/05 11:22:30;;;;;;;3.97;1.10;;;20.70;93.00;;;;;;5079416;28;20074;-85
2022/07/05 11:24:57;;;;;;;4.38;1.20;;;20.70;93.30;;;;;;5046408;28;20368;-84
2022/07/05 11:27:23;;;;;;;6.50;1.35;;;20.80;93.50;;;;;;5096467;28;20046;-84
2022/07/05 11:29:53;;;;;;;3.85;1.23;;;20.90;93.30;;;;;;5079631;28;20402;-84
2022/07/05 11:32:29;;;;;;;3.75;1.10;;;21.00;93.00;;;;;;5079021;28;20044;-85
2022/07/05 11:35:16;;;;;;;6.28;1.38;;;21.20;92.70;;;;;;5095727;28;20050;-84
2022/07/05 11:37:58;;;;;;;;;;;21.40;92.80;;;;;;5075811;28;20052;-84
2022/07/05 11:40:29;;;;;;;6.97;1.20;;;21.40;91.50;;;;;;5092808;28;20402;-85
2022/07/05 11:42:55;;;;;;;6.13;1.35;;;21.50;92.60;;;;;;5075893;28;20036;-84
2022/07/05 11:45:21;;;;;;;4.07;0.95;;;21.60;92.90;;;;;;5093349;28;20032;-83
2022/07/05 11:47:46;;;;;;;7.50;1.20;;;21.80;92.60;;;;;;5076355;28;20055;-85
2022/07/05 11:50:13;;;;;;;3.92;1.35;;;22.00;92.30;;;;;;5059415;28;20388;-85
2022/07/05 11:52:39;;;;;;;2.50;1.15;;;22.10;91.20;;;;;;5093097;28;20040;-84
2022/07/05 11:55:11;;;;;;;6.85;1.20;;;22.10;90.20;;;;;;5058722;28;20040;-85
2022/07/05 11:57:48;;;;;;;8.57;1.33;;;22.00;88.10;;;;;;5059501;28;20500;-84
2022/07/05 12:00:28;;;;;;;3.10;1.45;;;22.00;88.80;;;;;;5076336;28;20093;-84
2022/07/05 12:02:54;;;;;;;7.00;1.00;;;22.00;87.90;;;;;;5076049;28;20043;-84
2022/07/05 12:05:19;;;;;;;3.90;0.93;;;22.00;87.50;;;;;;5075556;28;20040;-84
2022/07/05 12:07:50;;;;;;;5.53;1.30;;;22.00;86.30;;;;;;5075884;28;20561;-85
2022/07/05 12:13:08;;;;;;;3.70;1.30;;;22.10;84.60;;;;;;5092846;28;20048;-84
2022/07/05 12:15:35;;;;;;;2.90;1.00;;;22.00;83.50;;;;;;5093086;28;20556;-84
2022/07/05 12:18:05;;;;;;;4.70;0.98;;;22.10;84.00;;;;;;5093865;28;20048;-84
2022/07/05 12:20:34;;;;;;;2.40;0.80;;;22.20;82.80;;;;;;5077330;28;20032;-83
2022/07/05 12:23:00;;;;;;;3.22;1.20;;;22.30;82.50;;;;;;5092605;28;20036;-84
2022/07/05 12:25:27;;;;;;;8.63;1.15;;;22.50;83.20;;;;;;5076520;28;20037;-84
2022/07/05 12:27:55;;;;;;;3.80;1.10;;;22.80;82.70;;;;;;5075556;28;20044;-84
2022/07/05 12:30:22;;;;;;;5.28;0.82;;;23.00;81.40;;;;;;5076701;28;20387;-84
2022/07/05 12:33:20;;;;;;;3.80;0.98;;;23.10;80.50;;;;;;5094076;28;20052;-84
2022/07/05 12:35:46;;;;;;;3.42;0.90;;;23.30;77.90;;;;;;5032612;28;20052;-84
2022/07/05 12:38:20;;;;;;;4.40;0.90;;;23.40;79.40;;;;;;5092176;28;20056;-84
2022/07/05 12:40:56;;;;;;;11.90;1.48;;;23.60;77.30;;;;;;5092775;28;20421;-84
2022/07/05 12:43:22;;;;;;;4.57;1.00;;;23.90;77.60;;;;;;5076252;28;20123;-84
2022/07/05 12:46:02;;;;;;;6.93;1.08;;;24.20;77.40;;;;;;5094076;28;20137;-84
2022/07/05 12:48:33;;;;;;;10.38;1.38;;;24.70;75.50;;;;;;5096226;28;20051;-85
2022/07/05 12:50:59;;;;;;;3.63;1.08;;;25.00;74.40;;;;;;5096285;28;20036;-84
2022/07/05 12:58:57;;;;;;;2.17;0.88;;;25.00;72.50;;;;;;5095386;28;20086;-84
2022/07/05 13:01:31;;;;;;;3.15;0.90;;;25.00;70.10;;;;;;5080090;28;20098;-84
2022/07/05 13:04:09;;;;;;;8.93;1.20;;;25.20;70.80;;;;;;5096440;28;20053;-84